Time;durP1;ratioP1;P1;durP2;ratioP2;P2;SDS_P1;SDS_P2;PMS_P1;PMS_P2;Temp;Humidity;BMP_temperature;BMP_pressure;BME280_temperature;BME280_humidity;BME280_pressure;Samples;Min_cycle;Max_cycle;Signal;HPM_P1;HPM_P2
2022/06/09 00:01:59;;;;;;;44.58;19.45;;;;;;;14.12;100.00;100586.06;10332618;28;20046;-95
2022/06/09 00:07:05;;;;;;;49.50;19.85;;;;;;;14.17;100.00;100596.25;10325464;28;20049;-95
2022/06/09 00:12:06;;;;;;;39.63;19.17;;;;;;;14.17;100.00;100601.78;10326164;28;20507;-96
2022/06/09 00:17:07;;;;;;;46.90;21.40;;;;;;;13.85;100.00;100547.72;10279371;28;20049;-95
2022/06/09 00:22:08;;;;;;;55.08;21.15;;;;;;;14.09;100.00;100594.91;10297907;28;20050;-96
2022/06/09 00:27:08;;;;;;;62.10;23.23;;;;;;;14.21;100.00;100608.41;10265456;28;20055;-93
2022/06/09 00:32:10;;;;;;;70.00;24.05;;;;;;;14.15;100.00;100595.72;10267366;28;20040;-95
2022/06/09 00:37:10;;;;;;;69.43;22.02;;;;;;;14.21;100.00;100591.81;10302362;28;20038;-94
2022/06/09 00:42:11;;;;;;;64.43;23.25;;;;;;;14.18;100.00;100603.47;10321232;28;20058;-94
2022/06/09 00:47:19;;;;;;;70.00;23.08;;;;;;;14.05;100.00;100590.22;10352802;28;20069;-83
2022/06/09 00:52:20;;;;;;;61.22;22.45;;;;;;;13.93;100.00;100579.47;10315262;28;20548;-96
2022/06/09 00:57:34;;;;;;;64.55;22.20;;;;;;;13.97;100.00;100624.03;10294649;28;20081;-96
2022/06/09 01:02:36;;;;;;;56.47;21.85;;;;;;;13.86;100.00;100618.53;10295474;28;20042;-95
2022/06/09 01:07:39;;;;;;;65.47;20.50;;;;;;;13.79;100.00;100636.53;10280151;28;20043;-95
2022/06/09 01:12:44;;;;;;;56.90;21.95;;;;;;;13.73;100.00;100630.22;10295283;28;20585;-95
2022/06/09 01:18:14;;;;;;;64.47;20.63;;;;;;;13.69;100.00;100632.72;10310703;28;20049;-95
2022/06/09 01:23:36;;;;;;;56.22;19.17;;;;;;;13.62;100.00;100634.09;10311452;28;20054;-95
2022/06/09 01:29:06;;;;;;;67.80;19.15;;;;;;;13.60;100.00;100637.19;10313573;28;20043;-95
2022/06/09 01:34:11;;;;;;;61.58;18.90;;;;;;;13.49;100.00;100630.00;10324095;28;20054;-95
2022/06/09 01:39:11;;;;;;;65.05;20.05;;;;;;;13.51;100.00;100639.66;10352247;28;20038;-96
2022/06/09 01:44:12;;;;;;;61.40;19.60;;;;;;;13.43;100.00;100651.28;10336031;28;20038;-95
2022/06/09 01:49:16;;;;;;;80.63;20.92;;;;;;;13.31;100.00;100642.47;10339177;28;20043;-94
2022/06/09 01:54:34;;;;;;;79.88;22.17;;;;;;;13.37;100.00;100649.63;10285624;28;20049;-95
2022/06/09 01:59:37;;;;;;;64.32;22.33;;;;;;;13.40;100.00;100657.41;10263078;28;20039;-95
2022/06/09 02:04:42;;;;;;;76.88;23.77;;;;;;;13.41;100.00;100661.81;10242917;28;20125;-96
2022/06/09 02:09:42;;;;;;;66.18;23.05;;;;;;;13.41;100.00;100677.56;10276206;28;20039;-95
2022/06/09 02:14:47;;;;;;;63.55;22.45;;;;;;;13.40;100.00;100679.50;10293333;28;20038;-96
2022/06/09 02:19:48;;;;;;;63.55;21.33;;;;;;;13.36;100.00;100672.06;10280904;28;20043;-96
2022/06/09 02:24:48;;;;;;;73.72;22.48;;;;;;;13.43;100.00;100698.31;10263541;28;20070;-96
2022/06/09 02:29:50;;;;;;;67.65;23.63;;;;;;;13.36;100.00;100683.94;10271551;28;20039;-94
2022/06/09 02:34:51;;;;;;;103.07;25.23;;;;;;;13.44;100.00;100693.63;10281548;28;20039;-96
2022/06/09 02:39:51;;;;;;;73.53;21.80;;;;;;;13.37;100.00;100704.94;10309881;28;20031;-94
2022/06/09 02:44:52;;;;;;;71.03;23.23;;;;;;;13.32;100.00;100702.19;10316071;28;20034;-80
2022/06/09 02:49:53;;;;;;;70.57;23.98;;;;;;;13.03;100.00;100666.78;10320890;28;20042;-81
2022/06/09 02:54:54;;;;;;;57.95;22.85;;;;;;;13.12;100.00;100700.22;10310396;28;20046;-96
2022/06/09 02:59:55;;;;;;;59.60;23.40;;;;;;;13.12;100.00;100702.97;10278533;28;20039;-96
2022/06/09 03:04:58;;;;;;;65.75;22.48;;;;;;;13.15;100.00;100721.78;10281024;28;20042;-93
2022/06/09 03:09:59;;;;;;;68.20;24.17;;;;;;;13.15;100.00;100709.88;10276842;28;20090;-96
2022/06/09 03:14:59;;;;;;;70.38;25.65;;;;;;;13.12;100.00;100709.38;10291357;28;20045;-96
2022/06/09 03:20:01;;;;;;;75.45;26.50;;;;;;;12.84;100.00;100662.91;10283847;28;20066;-95
2022/06/09 03:25:01;;;;;;;76.53;27.73;;;;;;;13.21;100.00;100734.50;10315126;28;20091;-93
2022/06/09 03:30:02;;;;;;;78.18;25.92;;;;;;;13.16;100.00;100725.38;10318809;28;20058;-94
2022/06/09 03:35:03;;;;;;;66.22;26.05;;;;;;;13.15;100.00;100724.56;10291165;28;20063;-80
2022/06/09 03:40:06;;;;;;;68.68;26.08;;;;;;;13.03;100.00;100716.53;10282709;28;22958;-95
2022/06/09 03:45:07;;;;;;;76.65;25.90;;;;;;;13.24;100.00;100746.94;10292234;28;20051;-95
2022/06/09 03:50:09;;;;;;;82.65;28.05;;;;;;;13.30;100.00;100760.53;10276533;28;20418;-95
2022/06/09 03:55:09;;;;;;;67.93;26.77;;;;;;;13.35;100.00;100767.16;10307102;28;20094;-95
2022/06/09 04:00:14;;;;;;;77.93;26.77;;;;;;;13.34;100.00;100771.88;10298428;28;20125;-96
2022/06/09 04:05:14;;;;;;;71.35;25.83;;;;;;;13.39;100.00;100774.63;10294240;28;20031;-94
2022/06/09 04:10:25;;;;;;;75.55;27.50;;;;;;;13.44;100.00;100788.47;10316148;28;20069;-96
2022/06/09 04:15:25;;;;;;;67.65;25.98;;;;;;;13.44;100.00;100782.94;10315544;28;20042;-94
2022/06/09 04:20:26;;;;;;;77.32;28.23;;;;;;;13.39;100.00;100773.81;10288373;28;20038;-95
2022/06/09 04:25:26;;;;;;;61.90;26.95;;;;;;;13.49;100.00;100791.22;10301399;28;20047;-95
2022/06/09 04:30:27;;;;;;;63.05;26.42;;;;;;;13.56;100.00;100793.75;10318501;28;20034;-95
2022/06/09 04:35:28;;;;;;;72.57;27.10;;;;;;;13.59;100.00;100812.53;10296955;28;20042;-95
2022/06/09 04:40:35;;;;;;;73.22;27.63;;;;;;;13.64;100.00;100817.22;10311659;28;20049;-95
2022/06/09 04:45:36;;;;;;;64.65;26.20;;;;;;;13.71;100.00;100817.81;10310197;28;20045;-95
2022/06/09 04:50:36;;;;;;;56.58;24.42;;;;;;;13.76;100.00;100828.84;10313677;28;20426;-96
2022/06/09 04:55:37;;;;;;;62.08;26.30;;;;;;;13.84;100.00;100830.25;10350880;28;20030;-96
2022/06/09 05:00:39;;;;;;;71.82;26.88;;;;;;;13.89;100.00;100827.47;10326753;28;20043;-95
2022/06/09 05:05:42;;;;;;;67.18;27.17;;;;;;;13.87;100.00;100830.53;10273810;28;20102;-95
2022/06/09 05:10:43;;;;;;;60.80;26.15;;;;;;;13.95;100.00;100839.38;10315176;28;20058;-95
2022/06/09 05:15:52;;;;;;;54.92;27.42;;;;;;;14.08;100.00;100842.41;10261906;28;20039;-96
2022/06/09 05:20:53;;;;;;;54.20;27.23;;;;;;;14.08;100.00;100822.22;10288667;28;20143;-96
2022/06/09 05:25:54;;;;;;;52.67;27.02;;;;;;;14.21;100.00;100856.78;10276344;28;20183;-96
2022/06/09 05:30:55;;;;;;;47.97;25.27;;;;;;;14.18;100.00;100857.34;10311008;28;20039;-95
2022/06/09 05:35:55;;;;;;;53.30;28.17;;;;;;;14.14;100.00;100851.53;10296092;28;20035;-96
2022/06/09 05:46:16;;;;;;;52.08;26.23;;;;;;;14.26;100.00;100888.09;10293732;28;20099;-96
2022/06/09 05:51:16;;;;;;;55.75;25.95;;;;;;;14.24;100.00;100886.69;10267140;28;20046;-95
2022/06/09 05:56:17;;;;;;;46.65;24.30;;;;;;;14.40;100.00;100909.66;10268659;28;20039;-94
2022/06/09 06:01:18;;;;;;;49.13;24.58;;;;;;;14.45;100.00;100906.84;10285172;28;20046;-93
2022/06/09 06:06:33;;;;;;;42.63;22.75;;;;;;;14.63;100.00;100931.25;10304423;28;20403;-94
2022/06/09 06:11:35;;;;;;;35.90;22.02;;;;;;;14.51;100.00;100906.59;10274540;28;20050;-95
2022/06/09 06:16:36;;;;;;;36.35;21.30;;;;;;;14.65;100.00;100922.66;10269958;28;20034;-95
2022/06/09 06:21:36;;;;;;;36.78;21.70;;;;;;;15.00;100.00;100951.38;10252363;28;20043;-95
2022/06/09 06:26:37;;;;;;;37.33;22.15;;;;;;;15.10;100.00;100945.81;10259516;28;20058;-94
2022/06/09 06:31:38;;;;;;;36.78;20.65;;;;;;;15.14;100.00;100925.53;10283023;28;20070;-94
2022/06/09 06:36:38;;;;;;;31.58;20.48;;;;;;;15.50;100.00;100964.22;10298240;28;20041;-93
2022/06/09 06:41:39;;;;;;;34.55;19.05;;;;;;;15.23;100.00;100977.66;10299598;28;20043;-93
2022/06/09 06:46:39;;;;;;;35.65;21.33;;;;;;;14.88;100.00;100965.56;10302604;28;20034;-91
2022/06/09 06:51:40;;;;;;;38.72;20.48;;;;;;;14.93;100.00;101009.91;10283683;28;20035;-89
2022/06/09 06:56:40;;;;;;;35.83;21.17;;;;;;;15.00;100.00;101009.59;10278157;28;20522;-90
2022/06/09 07:01:40;;;;;;;32.50;21.65;;;;;;;15.03;100.00;100996.03;10282572;28;20035;-82
2022/06/09 07:06:41;;;;;;;38.50;20.73;;;;;;;15.49;100.00;101008.91;10309537;28;20042;-91
2022/06/09 07:11:43;;;;;;;30.05;19.85;;;;;;;15.80;100.00;101009.59;10306281;28;20053;-92
2022/06/09 07:16:44;;;;;;;28.98;19.42;;;;;;;15.84;100.00;101007.09;10278104;28;20049;-92
2022/06/09 07:21:44;;;;;;;25.58;18.77;;;;;;;16.21;100.00;101003.78;10278000;28;20036;-93
2022/06/09 07:26:45;;;;;;;26.40;17.80;;;;;;;16.21;100.00;100998.22;10273830;28;20093;-92
2022/06/09 07:31:45;;;;;;;24.08;16.33;;;;;;;16.35;100.00;101015.09;10259853;28;20074;-92
2022/06/09 07:36:46;;;;;;;24.05;16.55;;;;;;;16.53;100.00;101033.81;10277071;28;20103;-93
2022/06/09 07:41:47;;;;;;;20.50;15.55;;;;;;;16.65;100.00;101041.78;10272539;28;20049;-91
2022/06/09 07:46:47;;;;;;;19.33;15.02;;;;;;;16.61;100.00;101045.44;10276808;28;20050;-92
2022/06/09 07:51:48;;;;;;;18.58;15.35;;;;;;;17.05;100.00;101050.91;10283439;28;20117;-91
2022/06/09 07:56:48;;;;;;;17.13;13.50;;;;;;;16.79;100.00;101018.88;10302503;28;20042;-92
2022/06/09 08:01:48;;;;;;;15.40;12.00;;;;;;;17.13;100.00;101057.75;10291916;28;20109;-93
2022/06/09 08:06:49;;;;;;;14.68;11.25;;;;;;;17.30;100.00;101063.72;10288527;28;20039;-92
2022/06/09 08:11:49;;;;;;;17.58;12.02;;;;;;;17.11;100.00;101066.41;10294004;28;20039;-91
2022/06/09 08:16:51;;;;;;;12.45;9.95;;;;;;;17.25;100.00;101065.72;10266096;28;20035;-91
2022/06/09 08:21:52;;;;;;;11.18;7.93;;;;;;;17.72;100.00;101080.75;10287805;28;20039;-91
2022/06/09 08:26:52;;;;;;;14.20;10.43;;;;;;;17.63;100.00;101083.38;10289797;28;20066;-91
2022/06/09 08:31:53;;;;;;;14.57;10.43;;;;;;;17.71;100.00;101079.09;10274483;28;20062;-91
2022/06/09 08:36:53;;;;;;;11.00;7.07;;;;;;;18.50;100.00;101103.66;10276153;28;20526;-91
2022/06/09 08:42:06;;;;;;;8.65;6.28;;;;;;;18.84;100.00;101103.44;10279662;28;20041;-93
2022/06/09 08:47:22;;;;;;;7.43;4.40;;;;;;;18.19;100.00;101112.50;10302545;28;20197;-92
2022/06/09 08:52:33;;;;;;;5.55;4.13;;;;;;;18.54;100.00;101110.28;10302632;28;20062;-90
2022/06/09 08:57:33;;;;;;;8.63;4.00;;;;;;;18.47;100.00;101112.66;10302550;28;20046;-90
2022/06/09 09:02:38;;;;;;;4.63;3.30;;;;;;;18.83;100.00;101104.59;10286563;28;20042;-90
2022/06/09 09:07:42;;;;;;;4.95;2.70;;;;;;;19.05;100.00;101112.28;10287470;28;20055;-90
2022/06/09 09:13:15;;;;;;;7.25;3.45;;;;;;;18.87;100.00;101138.25;10286855;28;20045;-90
2022/06/09 09:18:45;;;;;;;2.85;1.40;;;;;;;19.15;100.00;101133.59;10301525;28;20049;-94
2022/06/09 09:23:59;;;;;;;3.08;1.23;;;;;;;18.71;100.00;101140.44;10285746;28;20051;-90
2022/06/09 09:29:10;;;;;;;4.15;1.27;;;;;;;18.83;100.00;101142.78;10327198;28;20042;-92
2022/06/09 09:34:16;;;;;;;2.28;1.48;;;;;;;18.98;100.00;101144.53;10324245;28;20121;-90
2022/06/09 09:39:23;;;;;;;3.63;1.65;;;;;;;19.42;100.00;101154.34;10300159;28;20456;-88
2022/06/09 09:44:25;;;;;;;2.42;0.95;;;;;;;19.49;100.00;101161.19;10298107;28;20034;-93
2022/06/09 09:49:29;;;;;;;3.42;1.00;;;;;;;20.01;100.00;101163.00;10268433;28;20084;-91
2022/06/09 09:54:35;;;;;;;3.95;1.00;;;;;;;19.95;100.00;101165.91;10249057;28;20040;-90
2022/06/09 09:59:51;;;;;;;4.13;0.70;;;;;;;20.42;100.00;101181.69;10297610;28;20052;-90
2022/06/09 10:10:14;;;;;;;3.88;0.55;;;;;;;21.25;100.00;101173.03;10298469;28;20067;-90
2022/06/09 10:15:18;;;;;;;3.75;0.63;;;;;;;21.81;94.13;101156.69;10279428;28;20039;-91
2022/06/09 10:20:21;;;;;;;6.97;1.10;;;;;;;21.01;95.62;101179.78;10297220;28;20046;-91
2022/06/09 10:25:28;;;;;;;4.80;1.05;;;;;;;20.49;92.38;101165.31;10298360;28;20043;-91
2022/06/09 10:30:31;;;;;;;3.10;0.77;;;;;;;20.05;97.00;101195.63;10281197;28;20454;-92
2022/06/09 10:35:39;;;;;;;2.83;0.90;;;;;;;20.43;100.00;101200.97;10295123;28;20561;-92
2022/06/09 10:40:56;;;;;;;2.42;0.55;;;;;;;21.17;95.22;101200.66;10263229;28;20042;-93
2022/06/09 10:45:56;;;;;;;;;;;;;;;21.05;92.75;101200.41;10264124;28;20561;-92
2022/06/09 10:56:58;;;;;;;3.72;0.70;;;;;;;20.67;98.24;101223.13;10291613;28;20245;-91
2022/06/09 11:01:59;;;;;;;2.95;0.82;;;;;;;21.09;93.95;101226.63;10296375;28;20042;-92
2022/06/09 11:07:11;;;;;;;5.28;0.73;;;;;;;20.96;96.37;101236.72;10281268;28;20471;-90
2022/06/09 11:12:19;;;;;;;4.63;0.85;;;;;;;20.64;98.27;101228.50;10298382;28;20046;-90
2022/06/09 11:18:01;;;;;;;4.38;1.00;;;;;;;21.21;91.28;101236.41;10296529;28;20047;-91
2022/06/09 11:23:14;;;;;;;4.32;1.00;;;;;;;22.20;89.17;101242.78;10257711;28;20046;-90
2022/06/09 11:28:26;;;;;;;6.25;0.80;;;;;;;22.20;84.31;101240.00;10297586;28;20043;-92
2022/06/09 11:33:49;;;;;;;4.57;1.20;;;;;;;21.30;88.86;101245.72;10281280;28;20042;-92
2022/06/09 11:38:57;;;;;;;3.88;0.60;;;;;;;22.17;89.19;101251.84;10295130;28;20043;-91
2022/06/09 11:44:39;;;;;;;3.13;0.88;;;;;;;22.00;82.79;101260.19;10279836;28;20067;-92
2022/06/09 11:49:44;;;;;;;2.67;0.60;;;;;;;22.46;82.77;101247.69;10283452;28;20066;-92
2022/06/09 11:54:54;;;;;;;5.93;0.50;;;;;;;21.83;84.01;101270.16;10278582;28;20050;-90
2022/06/09 11:59:58;;;;;;;4.03;0.80;;;;;;;21.92;80.30;101261.78;10278977;28;20047;-90
2022/06/09 12:05:01;;;;;;;4.07;0.63;;;;;;;22.87;81.03;101266.09;10291134;28;20105;-90
2022/06/09 12:10:22;;;;;;;4.18;0.80;;;;;;;23.58;78.15;101265.75;10300258;28;20597;-93
2022/06/09 12:15:29;;;;;;;2.10;0.45;;;;;;;23.89;75.11;101251.47;10297764;28;20046;-93
2022/06/09 12:20:40;;;;;;;3.40;0.73;;;;;;;23.66;74.92;101273.34;10239153;28;20177;-94
2022/06/09 12:25:41;;;;;;;3.25;0.60;;;;;;;23.99;74.13;101269.16;10277748;28;20066;-92
2022/06/09 12:30:41;;;;;;;3.70;1.13;;;;;;;24.06;73.49;101275.09;10293809;28;20042;-92
2022/06/09 12:36:02;;;;;;;3.13;1.10;;;;;;;23.84;72.50;101285.41;10291137;28;20358;-92
2022/06/09 12:41:50;;;;;;;4.97;0.82;;;;;;;23.90;77.28;101309.38;10285684;28;20046;-92
2022/06/09 12:47:18;;;;;;;2.45;0.93;;;;;;;23.11;71.53;101304.94;10228237;28;20046;-92
2022/06/09 12:52:30;;;;;;;5.05;1.30;;;;;;;22.84;74.85;101337.75;10272007;28;20539;-93
2022/06/09 12:57:32;;;;;;;7.18;1.00;;;;;;;22.27;75.24;101332.91;10303028;28;20046;-92
2022/06/09 13:02:35;;;;;;;4.68;0.60;;;;;;;23.36;75.73;101359.50;10300506;28;20039;-93
2022/06/09 13:07:38;;;;;;;2.63;0.57;;;;;;;23.04;71.62;101313.84;10299960;28;20037;-89
2022/06/09 13:12:51;;;;;;;2.97;0.77;;;;;;;22.85;72.96;101353.44;10284912;28;20423;-93
2022/06/09 13:17:51;;;;;;;4.75;0.90;;;;;;;23.61;71.39;101348.59;10300987;28;20046;-93
2022/06/09 13:22:51;;;;;;;5.53;0.90;;;;;;;24.61;77.95;101386.78;10285584;28;20034;-93
2022/06/09 13:27:53;;;;;;;4.50;0.60;;;;;;;24.37;70.91;101367.63;10285363;28;20035;-93
2022/06/09 13:32:53;;;;;;;4.20;0.80;;;;;;;24.36;67.33;101363.19;10285425;28;20110;-92
2022/06/09 13:38:15;;;;;;;2.80;0.80;;;;;;;24.75;67.02;101366.88;10303141;28;20554;-93
2022/06/09 13:43:32;;;;;;;3.45;0.70;;;;;;;25.12;64.83;101367.97;10301850;28;20072;-93
2022/06/09 13:48:47;;;;;;;;;;;;;;;24.02;65.16;101380.97;10268318;28;20423;-93
2022/06/09 13:53:50;;;;;;;5.32;0.75;;;;;;;23.92;68.65;101404.66;10304837;28;19925;-92
2022/06/09 13:58:51;;;;;;;2.30;0.50;;;;;;;24.34;66.84;101408.53;10311098;28;20047;-92
2022/06/09 14:03:51;;;;;;;3.90;0.98;;;;;;;24.05;65.72;101403.63;10308312;28;20039;-93
2022/06/09 14:08:53;;;;;;;4.75;0.85;;;;;;;24.76;64.66;101405.97;10267479;28;20042;-93
2022/06/09 14:13:55;;;;;;;5.93;1.05;;;;;;;24.67;64.72;101407.97;10284628;28;20074;-93
2022/06/09 14:18:55;;;;;;;3.28;0.90;;;;;;;24.40;64.49;101420.44;10283242;28;20103;-93
2022/06/09 14:23:58;;;;;;;4.53;0.80;;;;;;;23.27;69.24;101456.97;10303118;28;20039;-92
2022/06/09 14:28:59;;;;;;;3.35;1.10;;;;;;;21.67;74.55;101467.84;10300383;28;20043;-93
2022/06/09 14:34:00;;;;;;;5.10;1.48;;;;;;;21.52;74.03;101472.66;10300246;28;20034;-92
2022/06/09 14:39:02;;;;;;;3.15;0.98;;;;;;;21.45;76.04;101469.44;10275125;28;20034;-93
2022/06/09 14:44:03;;;;;;;1.45;0.60;;;;;;;21.26;77.67;101491.13;10283569;28;20053;-92
2022/06/09 14:49:04;;;;;;;2.53;0.93;;;;;;;21.47;77.26;101503.56;10298262;28;20039;-93
2022/06/09 14:54:05;;;;;;;4.63;0.80;;;;;;;22.88;71.86;101483.91;10270750;28;20054;-92
2022/06/09 14:59:07;;;;;;;2.85;0.68;;;;;;;23.83;69.00;101474.13;10257890;28;20113;-92
2022/06/09 15:04:08;;;;;;;3.55;0.77;;;;;;;22.89;68.95;101496.78;10292706;28;20167;-91
2022/06/09 15:09:08;;;;;;;5.68;0.93;;;;;;;21.83;70.61;101505.59;10310575;28;20042;-91
2022/06/09 15:14:09;;;;;;;3.53;0.88;;;;;;;21.06;76.05;101534.34;10292543;28;20034;-92
2022/06/09 15:19:10;;;;;;;2.80;0.80;;;;;;;22.01;73.61;101516.94;10272881;28;20043;-92
2022/06/09 15:24:10;;;;;;;2.30;0.50;;;;;;;23.59;69.17;101511.13;10275421;28;20050;-93
2022/06/09 15:29:12;;;;;;;4.22;1.00;;;;;;;23.38;67.47;101503.31;10264625;28;20050;-92
2022/06/09 15:34:13;;;;;;;3.15;0.70;;;;;;;22.41;68.77;101517.97;10274591;28;20039;-92
2022/06/09 15:39:14;;;;;;;5.07;1.00;;;;;;;22.12;70.45;101538.00;10269342;28;20062;-93
2022/06/09 15:44:14;;;;;;;6.22;1.25;;;;;;;21.68;72.15;101547.97;10278341;28;20043;-90
2022/06/09 15:49:14;;;;;;;2.85;0.90;;;;;;;22.25;71.79;101523.13;10290214;28;20051;-92
2022/06/09 15:54:15;;;;;;;5.32;0.90;;;;;;;24.15;68.02;101531.88;10248989;28;20047;-91
2022/06/09 15:59:15;;;;;;;4.03;1.00;;;;;;;25.75;61.61;101519.44;10281603;28;20042;-90
2022/06/09 16:04:16;;;;;;;3.47;0.75;;;;;;;25.85;58.25;101519.03;10290541;28;20038;-92
2022/06/09 16:09:17;;;;;;;4.82;1.27;;;;;;;25.28;59.52;101514.78;10292316;28;20050;-86
2022/06/09 16:14:17;;;;;;;4.30;1.05;;;;;;;24.50;61.13;101543.16;10297433;28;20047;-86
2022/06/09 16:19:18;;;;;;;6.78;1.17;;;;;;;22.88;64.42;101557.75;10298982;28;20046;-85
2022/06/09 16:24:18;;;;;;;4.68;1.75;;;;;;;21.59;70.30;101578.69;10285464;28;20043;-85
2022/06/09 16:29:19;;;;;;;6.45;1.73;;;;;;;22.46;70.28;101581.53;10338934;28;20106;-84
2022/06/09 16:34:19;;;;;;;7.03;1.45;;;;;;;21.47;67.91;101576.41;10317584;28;20123;-84
2022/06/09 16:39:20;;;;;;;4.85;0.93;;;;;;;21.48;69.24;101583.69;10260054;28;20120;-78
2022/06/09 16:44:20;;;;;;;5.47;1.48;;;;;;;21.34;68.50;101599.63;10260959;28;20054;-85
2022/06/09 16:49:21;;;;;;;6.95;1.35;;;;;;;20.50;70.05;101600.50;10258743;28;20058;-85
2022/06/09 16:54:21;;;;;;;5.30;1.00;;;;;;;20.44;71.49;101612.91;10260389;28;20031;-85
2022/06/09 16:59:22;;;;;;;3.65;1.02;;;;;;;20.07;73.57;101611.75;10260392;28;20043;-85
2022/06/09 17:04:22;;;;;;;4.20;1.45;;;;;;;19.81;75.81;101644.81;10296028;28;20035;-81
2022/06/09 17:09:23;;;;;;;8.25;1.20;;;;;;;19.34;75.88;101638.84;10310004;28;20042;-84
2022/06/09 17:14:24;;;;;;;6.22;1.92;;;;;;;18.94;79.85;101640.91;10285487;28;20037;-84
2022/06/09 17:19:27;;;;;;;11.65;1.45;;;;;;;19.04;82.66;101665.94;10268436;28;20046;-84
2022/06/09 17:24:27;;;;;;;10.43;1.42;;;;;;;18.71;81.63;101671.19;10277193;28;20035;-84
2022/06/09 17:29:28;;;;;;;18.20;2.15;;;;;;;18.79;81.55;101668.94;10268359;28;20039;-85
2022/06/09 17:34:31;;;;;;;7.20;1.33;;;;;;;18.89;80.96;101655.75;10289411;28;20046;-82
2022/06/09 17:39:31;;;;;;;7.57;1.17;;;;;;;18.79;80.73;101667.00;10257916;28;20159;-85
2022/06/09 17:44:31;;;;;;;6.80;1.27;;;;;;;18.68;80.84;101682.91;10279981;28;20046;-84
2022/06/09 17:49:32;;;;;;;9.98;1.60;;;;;;;18.62;81.06;101695.22;10285735;28;20039;-85
2022/06/09 17:54:32;;;;;;;8.85;1.55;;;;;;;18.42;80.83;101707.34;10267208;28;20035;-82
2022/06/09 17:59:33;;;;;;;14.10;1.40;;;;;;;18.19;82.47;101714.44;10295805;28;20051;-84
2022/06/09 18:04:33;;;;;;;7.07;1.50;;;;;;;18.13;84.97;101716.41;10265524;28;20035;-83
2022/06/09 18:09:34;;;;;;;5.63;1.60;;;;;;;18.12;83.56;101719.47;10265919;28;20055;-84
2022/06/09 18:14:34;;;;;;;5.75;1.27;;;;;;;18.02;85.65;101727.88;10268807;28;20510;-84
2022/06/09 18:19:35;;;;;;;9.10;1.60;;;;;;;17.77;85.49;101712.88;10283810;28;20035;-85
2022/06/09 18:24:35;;;;;;;7.55;1.58;;;;;;;17.72;88.25;101736.00;10281243;28;20072;-84
2022/06/09 18:29:36;;;;;;;8.23;1.42;;;;;;;17.64;88.37;101741.31;10269994;28;20046;-82
2022/06/09 18:34:36;;;;;;;7.68;1.50;;;;;;;17.52;88.67;101748.00;10263696;28;20042;-83
2022/06/09 18:39:37;;;;;;;8.95;1.40;;;;;;;17.37;89.55;101756.38;10269931;28;20042;-83
2022/06/09 18:44:39;;;;;;;6.65;1.48;;;;;;;17.14;90.70;101744.69;10280626;28;20130;-84
2022/06/09 18:49:39;;;;;;;9.45;1.70;;;;;;;17.07;92.57;101774.69;10307024;28;20066;-84
2022/06/09 18:54:40;;;;;;;8.68;1.90;;;;;;;16.94;93.03;101773.28;10298247;28;20061;-91
2022/06/09 18:59:40;;;;;;;7.65;1.95;;;;;;;16.78;92.12;101762.38;10270290;28;20031;-91
2022/06/09 19:04:42;;;;;;;7.93;1.80;;;;;;;16.66;92.59;101782.94;10305415;28;20035;-87
2022/06/09 19:09:42;;;;;;;7.57;1.65;;;;;;;16.44;95.08;101776.75;10247377;28;20043;-86
2022/06/09 19:14:43;;;;;;;9.75;1.60;;;;;;;16.30;96.70;101785.56;10309472;28;20040;-85
2022/06/09 19:19:43;;;;;;;8.25;1.50;;;;;;;16.03;98.91;101790.44;10293509;28;20085;-85
2022/06/09 19:24:44;;;;;;;8.40;1.77;;;;;;;15.89;98.68;101790.88;10309657;28;20051;-85
2022/06/09 19:29:44;;;;;;;10.43;1.20;;;;;;;15.53;99.04;101764.81;10284939;28;20578;-85
2022/06/09 19:34:45;;;;;;;7.82;1.45;;;;;;;15.53;100.00;101803.66;10257559;28;20048;-86
2022/06/09 19:39:45;;;;;;;8.07;1.30;;;;;;;15.31;100.00;101812.06;10306271;28;20070;-86
2022/06/09 19:44:47;;;;;;;7.20;1.30;;;;;;;15.10;100.00;101813.81;10262228;28;20094;-84
2022/06/09 19:49:48;;;;;;;8.35;1.80;;;;;;;14.92;100.00;101821.41;10270963;28;20053;-86
2022/06/09 19:54:48;;;;;;;6.97;1.45;;;;;;;14.77;100.00;101831.47;10271977;28;20062;-86
2022/06/09 19:59:49;;;;;;;7.15;1.20;;;;;;;14.51;100.00;101814.47;10252386;28;20107;-86
2022/06/09 20:04:49;;;;;;;7.72;1.73;;;;;;;14.48;100.00;101837.19;10273966;28;20050;-85
2022/06/09 20:09:50;;;;;;;5.00;1.60;;;;;;;14.33;100.00;101841.41;10290871;28;20421;-86
2022/06/09 20:14:50;;;;;;;11.23;2.08;;;;;;;14.24;100.00;101850.41;10293418;28;20050;-85
2022/06/09 20:19:51;;;;;;;6.18;1.67;;;;;;;14.07;100.00;101858.75;10296681;28;20046;-85
2022/06/09 20:24:51;;;;;;;11.90;2.28;;;;;;;13.92;100.00;101851.88;10293303;28;20039;-85
2022/06/09 20:29:54;;;;;;;7.78;1.70;;;;;;;13.81;100.00;101869.44;10280288;28;20043;-85
2022/06/09 20:34:54;;;;;;;11.25;1.90;;;;;;;13.64;100.00;101861.13;10288377;28;20081;-86
2022/06/09 20:39:55;;;;;;;10.30;2.08;;;;;;;12.81;100.00;101757.56;10289568;28;20043;-85
2022/06/09 20:44:55;;;;;;;4.25;1.80;;;;;;;13.39;100.00;101882.81;10275175;28;20046;-85
2022/06/09 20:50:00;;;;;;;14.07;2.47;;;;;;;13.24;100.00;101877.81;10296705;28;20039;-80
2022/06/09 20:55:02;;;;;;;8.93;2.15;;;;;;;13.09;100.00;101881.94;10271373;28;20555;-85
2022/06/09 21:00:03;;;;;;;14.25;2.40;;;;;;;12.93;100.00;101882.72;10256849;28;20052;-85
2022/06/09 21:05:04;;;;;;;15.43;2.78;;;;;;;12.74;100.00;101882.06;10291968;28;20042;-85
2022/06/09 21:18:10;;;;;;;8.35;2.00;;;;;;;12.63;100.00;101885.69;10284463;28;20046;-85
2022/06/09 21:20:51;;;;;;;7.75;1.88;;;;;;;12.40;100.00;101900.38;10278254;28;20051;-78
2022/06/09 21:25:52;;;;;;;5.88;1.85;;;;;;;12.28;100.00;101904.00;10292384;28;20045;-85
2022/06/09 21:30:52;;;;;;;12.65;2.30;;;;;;;12.21;100.00;101897.75;10276732;28;20054;-84
2022/06/09 21:35:53;;;;;;;8.65;2.35;;;;;;;12.21;100.00;101914.31;10285866;28;20092;-86
2022/06/09 21:40:53;;;;;;;7.68;2.20;;;;;;;12.12;100.00;101926.81;10291740;28;20513;-83
2022/06/09 21:45:54;;;;;;;14.00;2.83;;;;;;;11.89;100.00;101895.34;10290536;28;20510;-85
2022/06/09 21:50:55;;;;;;;8.82;2.22;;;;;;;11.78;100.00;101893.38;10270737;28;20035;-84
2022/06/09 21:55:55;;;;;;;7.35;1.73;;;;;;;11.86;100.00;101920.59;10295642;28;20438;-85
2022/06/09 22:00:56;;;;;;;9.85;2.15;;;;;;;11.77;100.00;101918.44;10289221;28;20027;-85
2022/06/09 22:05:57;;;;;;;12.68;2.28;;;;;;;11.66;100.00;101917.34;10277537;28;20032;-84
2022/06/09 22:10:58;;;;;;;9.05;2.72;;;;;;;11.56;100.00;101917.91;10288672;28;20505;-85
2022/06/09 22:15:58;;;;;;;14.38;2.38;;;;;;;11.54;100.00;101930.25;10275464;28;20036;-84
2022/06/09 22:20:59;;;;;;;9.73;2.20;;;;;;;11.44;100.00;101926.13;10291140;28;20077;-86
2022/06/09 22:25:59;;;;;;;9.23;2.28;;;;;;;11.33;100.00;101924.19;10284782;28;20035;-85
2022/06/09 22:31:00;;;;;;;7.95;2.55;;;;;;;11.23;100.00;101929.41;10261811;28;20074;-85
2022/06/09 22:36:00;;;;;;;11.60;3.20;;;;;;;11.07;100.00;101920.72;10274496;28;20045;-85
2022/06/09 22:41:01;;;;;;;11.82;3.00;;;;;;;11.03;100.00;101930.50;10294031;28;20035;-85
2022/06/09 22:46:01;;;;;;;10.43;2.45;;;;;;;10.96;100.00;101935.28;10293009;28;20057;-86
2022/06/09 22:51:01;;;;;;;9.82;3.42;;;;;;;10.91;100.00;101937.88;10295619;28;20069;-85
2022/06/09 22:56:11;;;;;;;9.75;2.28;;;;;;;10.86;100.00;101929.47;10276088;28;20035;-84
2022/06/09 23:01:12;;;;;;;8.20;2.50;;;;;;;10.87;100.00;101936.63;10268421;28;20043;-85
2022/06/09 23:06:17;;;;;;;8.88;2.13;;;;;;;10.73;100.00;101929.59;10260538;28;20114;-85
2022/06/09 23:11:17;;;;;;;8.13;2.17;;;;;;;10.60;100.00;101912.16;10280034;28;20122;-85
2022/06/09 23:16:20;;;;;;;3.78;2.17;;;;;;;10.60;100.00;101928.69;10277966;28;20544;-84